createdAt,value
2022-08-14T00:01:23.826Z,9.23
2022-08-14T00:07:26.386Z,7.88
2022-08-14T00:13:30.961Z,8.35
2022-08-14T00:19:32.958Z,9.07
2022-08-14T00:25:42.005Z,8.95
2022-08-14T00:31:45.897Z,9.52
2022-08-14T00:37:48.038Z,9.27
2022-08-14T00:44:07.341Z,9.18
2022-08-14T00:50:17.607Z,9.18
2022-08-14T00:56:21.354Z,9.82
2022-08-14T01:02:28.379Z,8.77
2022-08-14T01:08:51.769Z,9.30
2022-08-14T01:38:33.879Z,10.13
2022-08-14T01:44:41.276Z,10.45
2022-08-14T01:50:45.089Z,10.52
2022-08-14T01:56:48.287Z,9.98
2022-08-14T02:02:58.394Z,10.07
2022-08-14T02:09:02.716Z,12.57
2022-08-14T02:15:11.511Z,13.45
2022-08-14T02:21:19.479Z,11.70
2022-08-14T02:28:23.514Z,10.93
2022-08-14T02:33:47.790Z,10.70
2022-08-14T02:39:52.203Z,9.98
2022-08-14T02:45:54.113Z,11.15
2022-08-14T02:51:57.942Z,11.32
2022-08-14T02:58:03.178Z,11.38
2022-08-14T03:04:06.181Z,13.73
2022-08-14T03:10:27.929Z,13.30
2022-08-14T03:16:35.871Z,12.65
2022-08-14T03:22:42.024Z,13.38
2022-08-14T03:28:46.964Z,12.32
2022-08-14T03:34:55.543Z,11.63
2022-08-14T03:40:58.103Z,11.88
2022-08-14T03:47:02.914Z,12.70
2022-08-14T03:53:14.182Z,13.63
2022-08-14T03:59:17.859Z,13.15
2022-08-14T04:05:21.156Z,13.57
2022-08-14T04:11:25.688Z,13.63
2022-08-14T04:17:29.493Z,12.70
2022-08-14T04:23:33.767Z,13.27
2022-08-14T04:29:44.824Z,13.20
2022-08-14T04:35:56.166Z,14.20
2022-08-14T04:42:17.250Z,13.13
2022-08-14T04:48:39.574Z,14.50
2022-08-14T04:54:43.102Z,13.70
2022-08-14T05:00:51.250Z,13.85
2022-08-14T05:06:55.565Z,12.75
2022-08-14T05:13:21.270Z,14.82
2022-08-14T05:19:29.266Z,14.60
2022-08-14T05:25:34.257Z,13.13
2022-08-14T05:31:40.782Z,12.27
2022-08-14T05:37:46.131Z,11.88
2022-08-14T05:43:49.446Z,12.10
2022-08-14T05:49:53.222Z,10.88
2022-08-14T05:55:56.279Z,10.10
2022-08-14T06:01:58.718Z,11.07
2022-08-14T06:08:08.824Z,10.55
2022-08-14T06:14:25.215Z,10.70
2022-08-14T06:20:34.432Z,13.50
2022-08-14T06:26:37.572Z,13.05
2022-08-14T06:32:46.173Z,12.00
2022-08-14T06:38:52.439Z,12.13
2022-08-14T06:44:58.443Z,9.82
2022-08-14T06:51:00.731Z,11.73
2022-08-14T06:57:03.239Z,12.30
2022-08-14T07:03:26.620Z,12.05
2022-08-14T07:09:43.633Z,11.05
2022-08-14T07:15:55.167Z,11.45
2022-08-14T07:21:57.546Z,11.32
2022-08-14T07:27:59.857Z,10.55
2022-08-14T07:34:03.997Z,10.57
2022-08-14T07:40:06.878Z,10.45
2022-08-14T07:46:10.687Z,9.30
2022-08-14T07:52:14.765Z,10.95
2022-08-14T07:58:34.573Z,11.18
2022-08-14T08:04:44.593Z,9.88
2022-08-14T08:11:02.208Z,10.20
2022-08-14T08:17:06.560Z,10.50
2022-08-14T08:23:10.275Z,10.07
2022-08-14T08:29:28.450Z,9.98
2022-08-14T08:35:46.867Z,9.55
2022-08-14T08:41:53.436Z,8.05
2022-08-14T08:47:56.318Z,7.82
2022-08-14T08:54:18.695Z,7.75
2022-08-14T09:00:25.493Z,7.78
2022-08-14T09:07:09.834Z,7.93
2022-08-14T09:12:51.471Z,8.07
2022-08-14T09:18:55.206Z,8.48
2022-08-14T09:24:57.462Z,7.40
2022-08-14T09:31:00.414Z,6.93
2022-08-14T09:37:22.241Z,6.70
2022-08-14T09:43:41.207Z,6.63
2022-08-14T09:49:52.182Z,6.65
2022-08-14T09:55:59.838Z,6.80
2022-08-14T10:02:02.205Z,6.53
2022-08-14T10:08:26.334Z,5.50
2022-08-14T10:14:35.735Z,5.65
2022-08-14T10:21:00.940Z,5.80
2022-08-14T10:27:16.875Z,6.30
2022-08-14T10:33:35.571Z,5.95
2022-08-14T10:39:51.208Z,6.45
2022-08-14T10:47:37.991Z,7.40
2022-08-14T10:52:42.469Z,6.70
2022-08-14T10:58:45.706Z,6.45
2022-08-14T11:05:15.622Z,6.32
2022-08-14T11:11:18.449Z,6.18
2022-08-14T11:17:21.603Z,6.50
2022-08-14T11:23:38.505Z,6.47
2022-08-14T11:29:43.289Z,6.25
2022-08-14T11:35:48.581Z,6.35
2022-08-14T11:41:56.016Z,5.97
2022-08-14T11:48:13.335Z,6.07
2022-08-14T11:54:20.522Z,5.97
2022-08-14T12:00:49.087Z,5.68
2022-08-14T12:06:55.960Z,5.07
2022-08-14T12:12:57.874Z,5.50
2022-08-14T12:19:00.646Z,6.10
2022-08-14T12:25:10.896Z,5.78
2022-08-14T12:31:20.537Z,5.65
2022-08-14T12:37:31.162Z,6.05
2022-08-14T12:43:34.102Z,5.53
2022-08-14T12:49:36.113Z,5.90
2022-08-14T12:56:17.873Z,6.20
2022-08-14T13:08:33.220Z,5.38
2022-08-14T13:14:37.358Z,5.60
2022-08-14T13:20:51.246Z,5.97
2022-08-14T13:26:57.054Z,5.90
2022-08-14T13:33:01.748Z,5.90
2022-08-14T13:39:04.273Z,5.85
2022-08-14T13:45:07.122Z,5.95
2022-08-14T13:51:10.876Z,5.82
2022-08-14T13:57:15.413Z,5.63
2022-08-14T14:03:22.334Z,5.90
2022-08-14T14:15:48.508Z,6.20
2022-08-14T14:22:01.783Z,5.22
2022-08-14T14:28:05.921Z,5.78
2022-08-14T14:34:29.840Z,5.10
2022-08-14T14:40:50.739Z,5.22
2022-08-14T14:46:58.414Z,5.40
2022-08-14T14:53:12.533Z,5.35
2022-08-14T14:59:16.819Z,5.10
2022-08-14T15:05:20.749Z,5.60
2022-08-14T15:11:22.794Z,5.57
2022-08-14T15:17:28.614Z,4.90
2022-08-14T15:23:44.041Z,5.30
2022-08-14T15:29:47.266Z,5.72
2022-08-14T15:35:50.307Z,5.68
2022-08-14T15:41:53.348Z,5.82
2022-08-14T15:48:13.995Z,5.75
2022-08-14T15:54:34.777Z,5.53
2022-08-14T16:00:55.799Z,5.80
2022-08-14T16:06:57.741Z,5.50
2022-08-14T16:12:59.715Z,5.15
2022-08-14T16:19:10.322Z,5.35
2022-08-14T16:25:18.115Z,5.03
2022-08-14T16:50:43.614Z,5.95
2022-08-14T16:57:32.307Z,5.82
2022-08-14T17:04:14.810Z,6.15
2022-08-14T17:10:27.917Z,5.97
2022-08-14T17:16:37.472Z,6.40
2022-08-14T17:23:11.326Z,6.35
2022-08-14T17:29:15.261Z,6.55
2022-08-14T17:35:25.059Z,6.50
2022-08-14T17:41:32.881Z,6.30
2022-08-14T17:47:38.437Z,6.32
2022-08-14T17:53:53.888Z,6.85
2022-08-14T18:00:06.556Z,6.10
2022-08-14T18:06:39.499Z,6.95
2022-08-14T18:12:36.872Z,6.88
2022-08-14T18:18:42.485Z,6.93
2022-08-14T18:24:45.918Z,7.15
2022-08-14T18:30:58.521Z,7.38
2022-08-14T18:37:16.812Z,7.07
2022-08-14T18:43:58.968Z,8.05
2022-08-14T18:50:26.369Z,7.57
2022-08-14T18:57:05.171Z,7.70
2022-08-14T19:03:10.379Z,7.63
2022-08-14T19:09:51.745Z,7.82
2022-08-14T19:16:16.593Z,7.82
2022-08-14T19:22:32.547Z,7.60
2022-08-14T19:28:48.196Z,7.88
2022-08-14T19:34:52.472Z,7.63
2022-08-14T19:40:57.031Z,7.50
2022-08-14T19:47:06.162Z,7.47
2022-08-14T19:53:17.100Z,8.00
2022-08-14T19:59:19.839Z,8.13
2022-08-14T20:05:23.231Z,7.55
2022-08-14T20:11:58.612Z,7.32
2022-08-14T20:18:06.367Z,7.57
2022-08-14T20:24:30.468Z,7.80
2022-08-14T20:30:35.919Z,7.78
2022-08-14T20:36:42.933Z,7.88
2022-08-14T20:43:11.026Z,8.35
2022-08-14T20:49:19.323Z,7.65
2022-08-14T20:55:29.667Z,8.13
2022-08-14T21:01:33.823Z,8.10
2022-08-14T21:07:40.219Z,8.63
2022-08-14T21:14:20.901Z,7.87
2022-08-14T21:20:25.479Z,8.27
2022-08-14T21:26:50.582Z,8.85
2022-08-14T21:32:58.306Z,8.68
2022-08-14T21:45:02.367Z,8.23
2022-08-14T21:51:52.832Z,8.43
2022-08-14T21:58:04.168Z,8.32
2022-08-14T22:03:59.333Z,8.68
2022-08-14T22:10:05.036Z,8.52
2022-08-14T22:16:09.173Z,8.40
2022-08-14T22:22:31.180Z,8.77
2022-08-14T22:28:33.694Z,8.43
2022-08-14T22:34:35.727Z,7.70
2022-08-14T22:41:02.216Z,8.43
2022-08-14T22:47:07.870Z,8.38
2022-08-14T22:53:12.034Z,8.55
2022-08-14T23:05:52.962Z,8.00
2022-08-14T23:11:56.911Z,7.90
2022-08-14T23:18:03.533Z,8.02
2022-08-14T23:24:05.983Z,7.30
2022-08-14T23:30:36.128Z,7.70
2022-08-14T23:36:53.917Z,8.30
2022-08-14T23:43:14.584Z,8.25
2022-08-14T23:49:20.418Z,8.25
2022-08-14T23:55:28.631Z,7.95
